createdAt,value
2018-03-15T00:01:14.908Z,7.00
2018-03-15T00:03:41.145Z,6.60
2018-03-15T00:06:08.064Z,5.10
2018-03-15T00:08:34.310Z,5.80
2018-03-15T00:11:00.498Z,6.40
2018-03-15T00:13:26.724Z,5.50
2018-03-15T00:15:52.949Z,6.80
2018-03-15T00:18:19.221Z,6.47
2018-03-15T00:20:45.423Z,6.60
2018-03-15T00:23:11.660Z,6.20
2018-03-15T00:25:37.896Z,8.57
2018-03-15T00:28:04.069Z,8.07
2018-03-15T00:30:30.307Z,7.70
2018-03-15T00:32:56.570Z,7.60
2018-03-15T00:35:22.758Z,7.60
2018-03-15T00:37:48.987Z,8.20
2018-03-15T00:40:15.213Z,7.30
2018-03-15T00:42:41.470Z,9.10
2018-03-15T00:45:07.713Z,8.60
2018-03-15T00:47:33.920Z,8.57
2018-03-15T00:50:00.138Z,9.77
2018-03-15T00:52:26.334Z,8.67
2018-03-15T00:54:52.584Z,9.83
2018-03-15T00:57:18.822Z,8.38
2018-03-15T00:59:45.013Z,9.87
2018-03-15T01:02:12.029Z,9.18
2018-03-15T01:04:38.204Z,8.50
2018-03-15T01:07:04.401Z,9.27
2018-03-15T01:09:30.605Z,9.10
2018-03-15T01:11:56.852Z,8.25
2018-03-15T01:14:23.088Z,8.27
2018-03-15T01:16:50.029Z,8.00
2018-03-15T01:19:16.274Z,7.82
2018-03-15T01:21:43.252Z,7.20
2018-03-15T01:24:09.449Z,7.07
2018-03-15T01:26:36.447Z,6.37
2018-03-15T01:29:02.741Z,6.83
2018-03-15T01:31:28.913Z,7.00
2018-03-15T01:33:55.105Z,6.70
2018-03-15T01:36:21.289Z,7.70
2018-03-15T01:38:47.496Z,5.73
2018-03-15T01:41:13.703Z,6.10
2018-03-15T01:43:39.962Z,6.43
2018-03-15T01:46:06.195Z,5.50
2018-03-15T01:48:32.424Z,6.40
2018-03-15T01:50:58.693Z,7.17
2018-03-15T01:53:24.892Z,6.13
2018-03-15T01:55:51.800Z,6.63
2018-03-15T01:58:18.010Z,6.00
2018-03-15T02:00:44.228Z,5.70
2018-03-15T02:03:10.437Z,5.90
2018-03-15T02:05:36.664Z,6.10
2018-03-15T02:08:02.905Z,5.33
2018-03-15T02:10:29.160Z,6.33
2018-03-15T02:12:55.368Z,7.40
2018-03-15T02:15:21.569Z,8.17
2018-03-15T02:17:48.517Z,8.83
2018-03-15T02:20:15.506Z,9.30
2018-03-15T02:22:41.738Z,10.03
2018-03-15T02:25:07.973Z,10.00
2018-03-15T02:27:34.193Z,10.40
2018-03-15T02:30:00.409Z,9.80
2018-03-15T02:32:26.627Z,10.37
2018-03-15T02:34:52.830Z,10.83
2018-03-15T02:37:19.794Z,10.43
2018-03-15T02:39:46.012Z,10.25
2018-03-15T02:42:12.189Z,9.90
2018-03-15T02:44:38.389Z,9.73
2018-03-15T02:47:04.592Z,10.55
2018-03-15T02:49:30.814Z,10.90
2018-03-15T02:51:57.756Z,10.33
2018-03-15T02:54:24.750Z,10.00
2018-03-15T02:56:50.949Z,9.48
2018-03-15T02:59:17.225Z,9.23
2018-03-15T03:01:43.462Z,9.27
2018-03-15T03:04:09.682Z,8.80
2018-03-15T03:06:35.953Z,10.23
2018-03-15T03:09:02.276Z,8.80
2018-03-15T03:11:29.260Z,7.93
2018-03-15T03:13:55.471Z,8.00
2018-03-15T03:16:21.703Z,7.70
2018-03-15T03:18:47.909Z,9.43
2018-03-15T03:21:14.109Z,7.47
2018-03-15T03:23:40.328Z,7.87
2018-03-15T03:26:06.547Z,8.33
2018-03-15T03:28:32.798Z,8.07
2018-03-15T03:30:59.793Z,7.70
2018-03-15T03:33:26.052Z,8.27
2018-03-15T03:35:52.281Z,8.07
2018-03-15T03:38:18.512Z,7.53
2018-03-15T03:40:44.748Z,5.20
2018-03-15T03:43:10.921Z,6.60
2018-03-15T03:45:37.173Z,5.70
2018-03-15T03:48:03.420Z,4.82
2018-03-15T03:50:29.642Z,4.60
2018-03-15T03:52:55.863Z,5.20
2018-03-15T03:55:22.111Z,4.40
2018-03-15T03:57:48.346Z,4.87
2018-03-15T04:00:14.542Z,3.95
2018-03-15T04:02:40.902Z,4.20
2018-03-15T04:05:07.834Z,4.32
2018-03-15T04:07:34.024Z,4.43
2018-03-15T04:10:00.276Z,4.00
2018-03-15T04:12:26.544Z,3.83
2018-03-15T04:14:52.734Z,4.05
2018-03-15T04:17:18.955Z,4.37
2018-03-15T04:19:45.189Z,3.75
2018-03-15T04:22:11.386Z,3.97
2018-03-15T04:24:37.635Z,4.30
2018-03-15T04:27:03.852Z,4.70
2018-03-15T04:29:30.086Z,4.75
2018-03-15T04:31:56.251Z,4.40
2018-03-15T04:34:22.500Z,4.32
2018-03-15T04:36:48.749Z,3.70
2018-03-15T04:39:15.072Z,4.03
2018-03-15T04:41:42.018Z,4.78
2018-03-15T04:44:08.204Z,4.43
2018-03-15T04:46:34.445Z,4.57
2018-03-15T04:49:00.637Z,3.75
2018-03-15T04:51:26.831Z,4.15
2018-03-15T04:53:53.044Z,4.35
2018-03-15T04:56:19.968Z,3.90
2018-03-15T04:58:46.205Z,3.70
2018-03-15T05:01:12.479Z,3.28
2018-03-15T05:03:38.759Z,3.85
2018-03-15T05:06:04.974Z,3.90
2018-03-15T05:08:31.221Z,3.37
2018-03-15T05:10:58.155Z,3.45
2018-03-15T05:13:25.144Z,3.25
2018-03-15T05:15:51.353Z,2.90
2018-03-15T05:18:18.369Z,3.55
2018-03-15T05:20:44.574Z,3.53
2018-03-15T05:23:10.813Z,3.70
2018-03-15T05:25:37.068Z,6.28
2018-03-15T05:28:04.000Z,6.50
2018-03-15T05:30:30.258Z,8.15
2018-03-15T05:32:57.185Z,6.68
2018-03-15T05:35:23.381Z,8.45
2018-03-15T05:37:49.608Z,6.03
2018-03-15T05:40:15.800Z,6.82
2018-03-15T05:42:42.018Z,6.40
2018-03-15T05:45:08.980Z,6.70
2018-03-15T05:47:35.148Z,8.30
2018-03-15T05:50:01.355Z,8.30
2018-03-15T05:52:27.575Z,7.57
2018-03-15T05:54:53.804Z,8.63
2018-03-15T05:57:19.968Z,7.53
2018-03-15T05:59:46.229Z,7.20
2018-03-15T06:02:13.168Z,7.15
2018-03-15T06:04:40.125Z,7.72
2018-03-15T06:07:06.297Z,11.73
2018-03-15T06:09:32.546Z,12.07
2018-03-15T06:11:58.728Z,12.27
2018-03-15T06:14:24.958Z,14.10
2018-03-15T06:16:51.176Z,14.15
2018-03-15T06:19:17.348Z,13.85
2018-03-15T06:21:43.580Z,13.70
2018-03-15T06:24:09.832Z,11.27
2018-03-15T06:26:36.752Z,11.05
2018-03-15T06:29:02.943Z,11.55
2018-03-15T06:31:29.237Z,12.95
2018-03-15T06:33:56.190Z,12.15
2018-03-15T06:36:22.361Z,13.38
2018-03-15T06:38:48.597Z,14.70
2018-03-15T06:41:14.777Z,12.98
2018-03-15T06:43:40.964Z,14.30
2018-03-15T06:46:07.462Z,12.82
2018-03-15T06:48:33.692Z,13.60
2018-03-15T06:50:59.851Z,13.32
2018-03-15T06:53:26.037Z,13.98
2018-03-15T06:55:52.256Z,13.15
2018-03-15T06:58:18.457Z,13.55
2018-03-15T07:00:45.384Z,14.05
2018-03-15T07:03:11.562Z,13.23
2018-03-15T07:05:37.818Z,12.25
2018-03-15T07:08:04.066Z,12.70
2018-03-15T07:10:30.378Z,14.02
2018-03-15T07:12:56.549Z,14.85
2018-03-15T07:15:23.500Z,15.68
2018-03-15T07:17:50.446Z,15.68
2018-03-15T07:20:16.636Z,16.48
2018-03-15T07:22:42.903Z,16.55
2018-03-15T07:25:09.035Z,18.12
2018-03-15T07:27:35.257Z,17.98
2018-03-15T07:30:01.566Z,17.23
2018-03-15T07:32:28.603Z,19.05
2018-03-15T07:34:54.800Z,17.00
2018-03-15T07:37:21.027Z,19.42
2018-03-15T07:39:47.322Z,17.00
2018-03-15T07:42:13.535Z,16.83
2018-03-15T07:44:40.496Z,17.50
2018-03-15T07:47:06.741Z,18.12
2018-03-15T07:49:33.002Z,17.48
2018-03-15T07:51:59.237Z,17.77
2018-03-15T07:54:25.467Z,18.75
2018-03-15T07:56:51.652Z,19.73
2018-03-15T07:59:17.857Z,19.65
2018-03-15T08:01:44.805Z,19.02
2018-03-15T08:04:11.016Z,18.42
2018-03-15T08:06:37.950Z,19.02
2018-03-15T08:09:04.182Z,18.87
2018-03-15T08:11:30.517Z,20.70
2018-03-15T08:13:56.709Z,22.77
2018-03-15T08:16:22.948Z,20.20
2018-03-15T08:18:49.130Z,20.35
2018-03-15T08:21:15.342Z,20.25
2018-03-15T08:23:42.325Z,20.92
2018-03-15T08:26:08.552Z,21.83
2018-03-15T08:28:34.791Z,20.60
2018-03-15T08:31:00.997Z,22.00
2018-03-15T08:33:27.218Z,19.85
2018-03-15T08:35:53.474Z,21.10
2018-03-15T08:38:19.685Z,21.77
2018-03-15T08:40:45.889Z,24.65
2018-03-15T08:43:12.096Z,23.33
2018-03-15T08:45:39.082Z,21.27
2018-03-15T08:48:05.325Z,23.67
2018-03-15T08:50:31.516Z,22.25
2018-03-15T08:52:57.730Z,22.48
2018-03-15T08:55:24.670Z,21.98
2018-03-15T08:57:51.654Z,22.55
2018-03-15T09:00:17.871Z,20.83
2018-03-15T09:02:44.097Z,22.87
2018-03-15T09:05:10.322Z,23.52
2018-03-15T09:07:36.608Z,22.70
2018-03-15T09:10:04.151Z,23.38
2018-03-15T09:12:30.731Z,20.77
2018-03-15T09:14:57.715Z,22.02
2018-03-15T09:17:23.913Z,22.52
2018-03-15T09:19:50.126Z,22.92
2018-03-15T09:22:17.146Z,21.52
2018-03-15T09:24:43.454Z,22.60
2018-03-15T09:27:09.660Z,22.15
2018-03-15T09:29:35.914Z,21.87
2018-03-15T09:32:02.214Z,21.58
2018-03-15T09:34:28.488Z,21.77
2018-03-15T09:36:54.706Z,23.75
2018-03-15T09:39:20.928Z,22.55
2018-03-15T09:41:48.128Z,24.30
2018-03-15T09:44:14.366Z,23.60
2018-03-15T09:46:41.680Z,23.73
2018-03-15T09:49:08.662Z,22.90
2018-03-15T09:51:34.867Z,23.83
2018-03-15T09:54:01.894Z,22.67
2018-03-15T09:56:28.112Z,21.70
2018-03-15T09:58:54.401Z,22.13
2018-03-15T10:01:20.632Z,22.95
2018-03-15T10:03:46.804Z,21.40
2018-03-15T10:06:13.097Z,22.63
2018-03-15T10:08:39.304Z,22.87
2018-03-15T10:11:05.594Z,23.33
2018-03-15T10:13:31.842Z,24.02
2018-03-15T10:15:58.846Z,22.75
2018-03-15T10:18:27.684Z,23.65
2018-03-15T10:20:54.018Z,23.00
2018-03-15T10:23:21.760Z,24.90
2018-03-15T10:25:47.990Z,22.57
2018-03-15T10:28:14.951Z,25.75
2018-03-15T10:30:41.888Z,22.67
2018-03-15T10:33:15.012Z,21.77
2018-03-15T10:35:41.209Z,23.87
2018-03-15T10:38:08.189Z,23.77
2018-03-15T10:40:34.380Z,22.10
2018-03-15T10:43:01.325Z,23.73
2018-03-15T10:45:28.364Z,24.30
2018-03-15T10:47:55.340Z,21.50
2018-03-15T10:50:21.559Z,25.27
2018-03-15T10:52:47.788Z,26.05
2018-03-15T10:55:14.036Z,24.10
2018-03-15T10:57:40.319Z,24.30
2018-03-15T11:00:07.291Z,23.33
2018-03-15T11:02:40.415Z,24.20
2018-03-15T11:05:14.052Z,24.15
2018-03-15T11:07:40.291Z,22.87
2018-03-15T11:10:07.314Z,24.97
2018-03-15T11:12:35.149Z,23.15
2018-03-15T11:15:01.421Z,25.52
2018-03-15T11:17:27.623Z,23.38
2018-03-15T11:19:53.858Z,23.83
2018-03-15T11:22:20.124Z,22.17
2018-03-15T11:24:46.301Z,24.75
2018-03-15T11:27:12.541Z,22.05
2018-03-15T11:29:38.776Z,23.02
2018-03-15T11:32:04.994Z,24.30
2018-03-15T11:34:31.279Z,26.98
2018-03-15T11:36:57.545Z,23.73
2018-03-15T11:39:23.786Z,24.80
2018-03-15T11:41:50.059Z,25.90
2018-03-15T11:44:17.036Z,26.53
2018-03-15T11:46:43.268Z,24.77
2018-03-15T11:49:09.562Z,24.20
2018-03-15T11:51:35.773Z,26.03
2018-03-15T11:54:02.750Z,24.60
2018-03-15T11:56:29.018Z,25.15
2018-03-15T11:58:55.251Z,24.00
2018-03-15T12:01:21.529Z,23.95
2018-03-15T12:03:47.772Z,25.30
2018-03-15T12:06:14.062Z,26.20
2018-03-15T12:08:41.024Z,25.30
2018-03-15T12:11:07.247Z,25.08
2018-03-15T12:13:33.454Z,26.07
2018-03-15T12:15:59.704Z,25.60
2018-03-15T12:18:25.944Z,29.02
2018-03-15T12:20:52.914Z,24.80
2018-03-15T12:23:19.157Z,25.92
2018-03-15T12:25:45.473Z,27.47
2018-03-15T12:28:11.720Z,25.10
2018-03-15T12:30:37.953Z,25.30
2018-03-15T12:33:04.132Z,26.70
2018-03-15T12:35:31.109Z,26.73
2018-03-15T12:37:57.351Z,26.00
2018-03-15T12:40:23.650Z,28.40
2018-03-15T12:42:49.824Z,26.30
2018-03-15T12:45:16.020Z,26.13
2018-03-15T12:47:42.198Z,27.33
2018-03-15T12:50:08.426Z,27.50
2018-03-15T12:52:34.726Z,27.17
2018-03-15T12:55:00.966Z,29.70
2018-03-15T12:57:27.262Z,27.40
2018-03-15T12:59:54.186Z,27.73
2018-03-15T13:02:20.426Z,30.27
2018-03-15T13:04:46.652Z,27.53
2018-03-15T13:07:12.903Z,27.33
2018-03-15T13:09:39.820Z,28.80
2018-03-15T13:12:06.021Z,27.60
2018-03-15T13:14:32.978Z,29.10
2018-03-15T13:16:59.921Z,28.67
2018-03-15T13:19:26.822Z,30.07
2018-03-15T13:21:53.066Z,27.33
2018-03-15T13:24:19.411Z,30.90
2018-03-15T13:26:45.622Z,28.83
2018-03-15T13:29:11.840Z,30.73
2018-03-15T13:31:38.048Z,32.17
2018-03-15T13:34:04.232Z,30.53
2018-03-15T13:36:31.177Z,29.27
2018-03-15T13:38:58.156Z,30.10
2018-03-15T13:41:24.434Z,29.43
2018-03-15T13:43:50.690Z,30.47
2018-03-15T13:46:16.932Z,30.73
2018-03-15T13:48:43.152Z,28.43
2018-03-15T13:51:09.383Z,27.03
2018-03-15T13:53:35.569Z,29.87
2018-03-15T13:56:01.769Z,33.47
2018-03-15T13:58:28.001Z,32.20
2018-03-15T14:00:54.277Z,30.77
2018-03-15T14:03:21.199Z,31.20
2018-03-15T14:05:47.407Z,29.87
2018-03-15T14:08:13.631Z,31.70
2018-03-15T14:10:39.841Z,29.40
2018-03-15T14:13:06.030Z,29.47
2018-03-15T14:15:32.995Z,29.13
2018-03-15T14:17:59.201Z,28.97
2018-03-15T14:20:26.157Z,30.40
2018-03-15T14:22:53.118Z,31.17
2018-03-15T14:25:19.385Z,30.83
2018-03-15T14:27:45.613Z,32.83
2018-03-15T14:30:11.853Z,31.40
2018-03-15T14:32:38.076Z,31.23
2018-03-15T14:35:04.308Z,29.70
2018-03-15T14:37:30.572Z,29.83
2018-03-15T14:39:56.764Z,29.70
2018-03-15T14:42:23.001Z,30.00
2018-03-15T14:44:49.240Z,29.90
2018-03-15T14:47:16.206Z,29.47
2018-03-15T14:49:42.424Z,32.03
2018-03-15T14:52:09.348Z,29.73
2018-03-15T14:54:35.521Z,31.03
2018-03-15T14:57:01.724Z,30.37
2018-03-15T14:59:28.741Z,30.63
2018-03-15T15:01:56.267Z,30.03
2018-03-15T15:04:23.652Z,32.37
2018-03-15T15:06:51.031Z,29.70
2018-03-15T15:09:18.522Z,31.77
2018-03-15T15:11:46.907Z,31.23
2018-03-15T15:14:14.617Z,27.00
2018-03-15T15:16:42.220Z,28.23
2018-03-15T15:19:10.640Z,28.90
2018-03-15T15:21:37.265Z,30.40
2018-03-15T15:24:06.647Z,28.73
2018-03-15T15:26:35.028Z,29.30
2018-03-15T15:29:02.350Z,30.30
2018-03-15T15:31:29.520Z,31.83
2018-03-15T15:33:56.965Z,30.90
2018-03-15T15:36:24.234Z,30.10
2018-03-15T15:38:51.759Z,31.60
2018-03-15T15:41:19.214Z,30.80
2018-03-15T15:43:46.806Z,30.37
2018-03-15T15:46:14.130Z,30.63
2018-03-15T15:48:41.238Z,29.40
2018-03-15T15:51:08.522Z,29.17
2018-03-15T15:53:35.974Z,29.37
2018-03-15T15:56:03.697Z,29.53
2018-03-15T15:58:31.301Z,32.07
2018-03-15T16:00:58.852Z,30.13
2018-03-15T16:03:26.497Z,30.50
2018-03-15T16:05:53.899Z,30.53
2018-03-15T16:08:21.338Z,27.33
2018-03-15T16:10:48.848Z,25.20
2018-03-15T16:13:17.265Z,25.43
2018-03-15T16:15:44.779Z,26.93
2018-03-15T16:18:11.673Z,25.90
2018-03-15T16:20:39.172Z,26.77
2018-03-15T16:23:06.601Z,26.07
2018-03-15T16:25:34.010Z,23.63
2018-03-15T16:28:01.738Z,24.80
2018-03-15T16:30:29.340Z,24.30
2018-03-15T16:32:56.555Z,23.40
2018-03-15T16:35:23.968Z,24.00
2018-03-15T16:37:51.219Z,22.47
2018-03-15T16:40:18.711Z,24.03
2018-03-15T16:42:46.396Z,23.57
2018-03-15T16:45:14.739Z,24.80
2018-03-15T16:47:42.830Z,25.80
2018-03-15T16:50:10.093Z,23.47
2018-03-15T16:52:37.842Z,24.57
2018-03-15T16:55:06.405Z,22.40
2018-03-15T16:57:34.451Z,23.27
2018-03-15T17:00:01.808Z,23.63
2018-03-15T17:02:28.961Z,25.67
2018-03-15T17:04:56.226Z,23.53
2018-03-15T17:07:23.634Z,25.60
2018-03-15T17:09:50.733Z,24.13
2018-03-15T17:12:18.352Z,24.37
2018-03-15T17:14:46.730Z,23.83
2018-03-15T17:17:14.122Z,25.97
2018-03-15T17:19:41.684Z,24.77
2018-03-15T17:22:09.119Z,23.70
2018-03-15T17:24:36.619Z,25.53
2018-03-15T17:27:04.235Z,24.10
2018-03-15T17:29:31.601Z,24.33
2018-03-15T17:31:59.240Z,23.33
2018-03-15T17:34:25.620Z,24.80
2018-03-15T17:36:51.899Z,25.37
2018-03-15T17:39:18.242Z,23.93
2018-03-15T17:41:51.097Z,25.20
2018-03-15T17:44:17.373Z,23.80
2018-03-15T17:46:44.334Z,24.50
2018-03-15T17:49:10.617Z,24.80
2018-03-15T17:51:36.824Z,24.23
2018-03-15T17:54:10.890Z,23.63
2018-03-15T17:56:37.828Z,24.30
2018-03-15T17:59:04.051Z,23.30
2018-03-15T18:01:30.406Z,24.77
2018-03-15T18:03:57.351Z,23.70
2018-03-15T18:06:23.573Z,22.27
2018-03-15T18:08:50.568Z,23.30
2018-03-15T18:11:16.796Z,24.77
2018-03-15T18:13:43.095Z,22.20
2018-03-15T18:16:09.434Z,20.27
2018-03-15T18:18:35.650Z,20.40
2018-03-15T18:21:01.875Z,22.00
2018-03-15T18:23:28.122Z,23.00
2018-03-15T18:25:54.293Z,22.77
2018-03-15T18:28:20.657Z,23.00
2018-03-15T18:30:46.964Z,21.00
2018-03-15T18:33:13.945Z,22.30
2018-03-15T18:35:40.172Z,23.90
2018-03-15T18:38:06.358Z,26.40
2018-03-15T18:40:32.551Z,24.03
2018-03-15T18:42:58.840Z,23.60
2018-03-15T18:45:25.050Z,24.20
2018-03-15T18:47:51.272Z,24.47
2018-03-15T18:50:17.595Z,23.27
2018-03-15T18:52:43.833Z,20.47
2018-03-15T18:55:10.153Z,19.87
2018-03-15T18:57:36.401Z,20.60
2018-03-15T19:00:03.398Z,22.43
2018-03-15T19:02:30.412Z,20.77
2018-03-15T19:04:56.788Z,19.83
2018-03-15T19:07:23.050Z,20.77
2018-03-15T19:09:50.199Z,22.37
2018-03-15T19:12:16.496Z,20.30
2018-03-15T19:14:42.737Z,22.70
2018-03-15T19:17:08.942Z,19.97
2018-03-15T19:19:35.191Z,19.73
2018-03-15T19:22:01.426Z,20.10
2018-03-15T19:24:27.669Z,22.20
2018-03-15T19:26:53.886Z,22.70
2018-03-15T19:29:20.078Z,22.30
2018-03-15T19:31:46.388Z,21.87
2018-03-15T19:34:12.628Z,20.40
2018-03-15T19:36:38.820Z,21.30
2018-03-15T19:39:05.052Z,20.63
2018-03-15T19:41:32.028Z,21.40
2018-03-15T19:43:58.232Z,20.10
2018-03-15T19:46:25.250Z,19.67
2018-03-15T19:48:51.476Z,21.17
2018-03-15T19:51:17.681Z,23.97
2018-03-15T19:53:43.929Z,24.20
2018-03-15T19:56:10.112Z,22.20
2018-03-15T19:58:36.398Z,21.73
2018-03-15T20:01:03.420Z,22.47
2018-03-15T20:03:29.628Z,20.00
2018-03-15T20:05:55.874Z,19.00
2018-03-15T20:08:22.136Z,19.03
2018-03-15T20:10:48.413Z,16.30
2018-03-15T20:13:14.610Z,15.37
2018-03-15T20:15:47.013Z,14.90
2018-03-15T20:18:13.265Z,14.90
2018-03-15T20:20:39.444Z,15.63
2018-03-15T20:23:11.856Z,12.60
2018-03-15T20:25:38.102Z,12.00
2018-03-15T20:28:10.277Z,12.07
2018-03-15T20:30:36.523Z,11.00
2018-03-15T20:33:09.545Z,10.00
2018-03-15T20:35:35.746Z,9.50
2018-03-15T20:38:02.762Z,8.43
2018-03-15T20:40:34.993Z,7.93
2018-03-15T20:43:01.243Z,8.63
2018-03-15T20:45:33.538Z,7.43
2018-03-15T20:48:05.926Z,7.47
2018-03-15T20:50:33.096Z,6.43
2018-03-15T20:52:59.392Z,6.90
2018-03-15T20:55:25.604Z,6.63
2018-03-15T20:57:51.812Z,5.50
2018-03-15T21:00:18.033Z,6.13
2018-03-15T21:02:44.239Z,5.37
2018-03-15T21:05:10.431Z,4.93
2018-03-15T21:07:36.665Z,5.70
2018-03-15T21:10:02.890Z,4.43
2018-03-15T21:12:29.098Z,4.30
2018-03-15T21:14:55.306Z,4.20
2018-03-15T21:17:21.508Z,3.73
2018-03-15T21:19:47.730Z,3.77
2018-03-15T21:22:13.935Z,3.40
2018-03-15T21:24:40.138Z,3.07
2018-03-15T21:27:06.501Z,2.10
2018-03-15T21:29:32.586Z,2.47
2018-03-15T21:31:58.778Z,1.60
2018-03-15T21:34:24.986Z,1.77
2018-03-15T21:36:51.175Z,2.03
2018-03-15T21:39:17.397Z,1.80
2018-03-15T21:41:43.609Z,1.70
2018-03-15T21:44:09.788Z,2.30
2018-03-15T21:46:36.774Z,1.97
2018-03-15T21:49:03.042Z,2.50
2018-03-15T21:51:29.251Z,2.27
2018-03-15T21:53:55.467Z,2.10
2018-03-15T21:56:21.740Z,1.97
2018-03-15T21:58:47.933Z,2.00
2018-03-15T22:01:14.112Z,1.77
2018-03-15T22:03:40.337Z,1.50
2018-03-15T22:06:06.539Z,1.07
2018-03-15T22:08:33.736Z,1.37
2018-03-15T22:10:59.960Z,1.60
2018-03-15T22:13:26.127Z,1.53
2018-03-15T22:15:52.337Z,2.13
2018-03-15T22:18:18.569Z,1.20
2018-03-15T22:20:44.784Z,1.30
2018-03-15T22:23:11.032Z,1.53
2018-03-15T22:25:37.231Z,1.23
2018-03-15T22:28:03.477Z,1.40
2018-03-15T22:30:30.786Z,1.10
2018-03-15T22:32:56.984Z,0.80
2018-03-15T22:35:23.182Z,1.00
2018-03-15T22:37:49.401Z,1.43
2018-03-15T22:40:15.648Z,1.43
2018-03-15T22:42:41.834Z,0.90
2018-03-15T22:45:08.022Z,1.00
2018-03-15T22:47:34.212Z,1.07
2018-03-15T22:50:00.434Z,1.20
2018-03-15T22:52:26.736Z,0.90
2018-03-15T22:54:53.716Z,0.90
2018-03-15T22:57:19.934Z,1.00
2018-03-15T22:59:46.160Z,1.10
2018-03-15T23:02:12.392Z,1.00
2018-03-15T23:04:39.868Z,0.97
2018-03-15T23:07:07.596Z,0.80
2018-03-15T23:09:33.908Z,0.90
2018-03-15T23:12:00.883Z,0.87
2018-03-15T23:14:27.072Z,0.90
2018-03-15T23:16:53.326Z,1.00
2018-03-15T23:19:19.457Z,0.70
2018-03-15T23:21:45.698Z,0.73
2018-03-15T23:24:11.914Z,0.70
2018-03-15T23:26:38.156Z,0.80
2018-03-15T23:29:04.383Z,0.80
2018-03-15T23:31:30.608Z,0.73
2018-03-15T23:33:56.823Z,0.87
2018-03-15T23:36:23.084Z,0.70
2018-03-15T23:38:49.302Z,0.97
2018-03-15T23:41:15.535Z,0.80
2018-03-15T23:43:41.846Z,0.90
2018-03-15T23:46:08.142Z,0.87
2018-03-15T23:48:35.106Z,1.40
2018-03-15T23:51:02.106Z,0.93
2018-03-15T23:53:28.309Z,0.90
2018-03-15T23:55:54.526Z,0.80
2018-03-15T23:58:20.781Z,0.87
